sensor_id;sensor_type;location;lat;lon;timestamp;P1;durP1;ratioP1;P2;durP2;ratioP2
22230;SDS011;11284;48.086;-1.652;2024-01-15T00:02:09;52.78;;;35.83;;
22230;SDS011;11284;48.086;-1.652;2024-01-15T00:04:38;54.50;;;34.67;;
22230;SDS011;11284;48.086;-1.652;2024-01-15T00:07:05;51.70;;;34.33;;
22230;SDS011;11284;48.086;-1.652;2024-01-15T00:09:31;57.30;;;36.60;;
22230;SDS011;11284;48.086;-1.652;2024-01-15T00:11:58;51.92;;;34.97;;
22230;SDS011;11284;48.086;-1.652;2024-01-15T00:14:24;52.25;;;35.92;;
22230;SDS011;11284;48.086;-1.652;2024-01-15T00:16:50;51.50;;;35.08;;
22230;SDS011;11284;48.086;-1.652;2024-01-15T00:19:17;53.80;;;35.30;;
22230;SDS011;11284;48.086;-1.652;2024-01-15T00:21:43;54.22;;;35.28;;
22230;SDS011;11284;48.086;-1.652;2024-01-15T00:24:09;54.55;;;35.35;;
22230;SDS011;11284;48.086;-1.652;2024-01-15T00:26:35;56.03;;;35.00;;
22230;SDS011;11284;48.086;-1.652;2024-01-15T00:29:02;55.30;;;35.38;;
22230;SDS011;11284;48.086;-1.652;2024-01-15T00:31:28;51.80;;;34.08;;
22230;SDS011;11284;48.086;-1.652;2024-01-15T00:33:54;52.55;;;34.25;;
22230;SDS011;11284;48.086;-1.652;2024-01-15T00:36:20;52.42;;;35.03;;
22230;SDS011;11284;48.086;-1.652;2024-01-15T00:38:46;51.83;;;33.65;;
22230;SDS011;11284;48.086;-1.652;2024-01-15T00:41:13;52.40;;;34.38;;
22230;SDS011;11284;48.086;-1.652;2024-01-15T00:43:39;53.20;;;34.67;;
22230;SDS011;11284;48.086;-1.652;2024-01-15T00:46:05;50.10;;;32.60;;
22230;SDS011;11284;48.086;-1.652;2024-01-15T00:48:31;49.78;;;32.95;;
22230;SDS011;11284;48.086;-1.652;2024-01-15T00:50:58;48.78;;;32.38;;
22230;SDS011;11284;48.086;-1.652;2024-01-15T00:53:25;51.53;;;32.45;;
22230;SDS011;11284;48.086;-1.652;2024-01-15T00:55:51;49.65;;;32.08;;
22230;SDS011;11284;48.086;-1.652;2024-01-15T00:58:18;48.10;;;30.98;;
22230;SDS011;11284;48.086;-1.652;2024-01-15T01:00:44;49.22;;;30.33;;
22230;SDS011;11284;48.086;-1.652;2024-01-15T01:03:10;48.97;;;30.48;;
22230;SDS011;11284;48.086;-1.652;2024-01-15T01:05:36;47.90;;;29.77;;
22230;SDS011;11284;48.086;-1.652;2024-01-15T01:08:02;46.40;;;30.35;;
22230;SDS011;11284;48.086;-1.652;2024-01-15T01:10:28;47.97;;;29.92;;
22230;SDS011;11284;48.086;-1.652;2024-01-15T01:12:55;48.63;;;30.70;;
22230;SDS011;11284;48.086;-1.652;2024-01-15T01:15:21;46.03;;;30.67;;
22230;SDS011;11284;48.086;-1.652;2024-01-15T01:17:47;46.28;;;30.17;;
22230;SDS011;11284;48.086;-1.652;2024-01-15T01:20:13;49.28;;;30.80;;
22230;SDS011;11284;48.086;-1.652;2024-01-15T01:22:40;47.20;;;30.17;;
22230;SDS011;11284;48.086;-1.652;2024-01-15T01:25:06;48.25;;;30.90;;
22230;SDS011;11284;48.086;-1.652;2024-01-15T01:27:32;49.72;;;30.25;;
22230;SDS011;11284;48.086;-1.652;2024-01-15T01:29:58;48.38;;;30.17;;
22230;SDS011;11284;48.086;-1.652;2024-01-15T01:32:24;44.58;;;28.20;;
22230;SDS011;11284;48.086;-1.652;2024-01-15T01:34:50;43.65;;;27.90;;
22230;SDS011;11284;48.086;-1.652;2024-01-15T01:37:16;45.00;;;28.77;;
22230;SDS011;11284;48.086;-1.652;2024-01-15T01:39:43;45.40;;;28.73;;
22230;SDS011;11284;48.086;-1.652;2024-01-15T01:42:09;44.25;;;28.02;;
22230;SDS011;11284;48.086;-1.652;2024-01-15T01:44:35;47.97;;;28.67;;
22230;SDS011;11284;48.086;-1.652;2024-01-15T01:47:01;42.95;;;28.23;;
22230;SDS011;11284;48.086;-1.652;2024-01-15T01:49:28;44.05;;;27.35;;
22230;SDS011;11284;48.086;-1.652;2024-01-15T01:51:57;44.25;;;28.45;;
22230;SDS011;11284;48.086;-1.652;2024-01-15T01:54:24;41.22;;;27.48;;
22230;SDS011;11284;48.086;-1.652;2024-01-15T01:56:51;41.30;;;26.95;;
22230;SDS011;11284;48.086;-1.652;2024-01-15T01:59:17;45.58;;;28.13;;
22230;SDS011;11284;48.086;-1.652;2024-01-15T02:01:44;41.78;;;26.77;;
22230;SDS011;11284;48.086;-1.652;2024-01-15T02:04:10;42.15;;;26.75;;
22230;SDS011;11284;48.086;-1.652;2024-01-15T02:06:37;45.33;;;27.75;;
22230;SDS011;11284;48.086;-1.652;2024-01-15T02:09:03;43.50;;;27.60;;
22230;SDS011;11284;48.086;-1.652;2024-01-15T02:11:30;42.85;;;27.42;;
22230;SDS011;11284;48.086;-1.652;2024-01-15T02:13:56;43.15;;;27.83;;
22230;SDS011;11284;48.086;-1.652;2024-01-15T02:16:22;41.22;;;25.75;;
22230;SDS011;11284;48.086;-1.652;2024-01-15T02:18:48;45.35;;;27.02;;
22230;SDS011;11284;48.086;-1.652;2024-01-15T02:21:14;40.70;;;25.42;;
22230;SDS011;11284;48.086;-1.652;2024-01-15T02:23:40;41.00;;;25.95;;
22230;SDS011;11284;48.086;-1.652;2024-01-15T02:26:06;41.33;;;25.45;;
22230;SDS011;11284;48.086;-1.652;2024-01-15T02:28:33;37.83;;;25.13;;
22230;SDS011;11284;48.086;-1.652;2024-01-15T02:30:59;40.42;;;24.95;;
22230;SDS011;11284;48.086;-1.652;2024-01-15T02:33:25;37.38;;;24.27;;
22230;SDS011;11284;48.086;-1.652;2024-01-15T02:35:51;39.03;;;25.13;;
22230;SDS011;11284;48.086;-1.652;2024-01-15T02:38:17;39.17;;;24.27;;
22230;SDS011;11284;48.086;-1.652;2024-01-15T02:40:44;41.03;;;25.35;;
22230;SDS011;11284;48.086;-1.652;2024-01-15T02:43:10;36.60;;;24.02;;
22230;SDS011;11284;48.086;-1.652;2024-01-15T02:45:37;37.90;;;23.63;;
22230;SDS011;11284;48.086;-1.652;2024-01-15T02:48:03;39.70;;;25.27;;
22230;SDS011;11284;48.086;-1.652;2024-01-15T02:50:29;34.92;;;22.25;;
22230;SDS011;11284;48.086;-1.652;2024-01-15T02:52:55;37.17;;;23.88;;
22230;SDS011;11284;48.086;-1.652;2024-01-15T02:55:21;36.63;;;24.10;;
22230;SDS011;11284;48.086;-1.652;2024-01-15T02:57:47;39.22;;;24.35;;
22230;SDS011;11284;48.086;-1.652;2024-01-15T03:00:13;39.30;;;24.23;;
22230;SDS011;11284;48.086;-1.652;2024-01-15T03:02:39;37.15;;;23.33;;
22230;SDS011;11284;48.086;-1.652;2024-01-15T03:05:08;39.17;;;24.73;;
22230;SDS011;11284;48.086;-1.652;2024-01-15T03:07:34;40.20;;;25.08;;
22230;SDS011;11284;48.086;-1.652;2024-01-15T03:10:00;36.40;;;23.27;;
22230;SDS011;11284;48.086;-1.652;2024-01-15T03:12:27;35.05;;;21.58;;
22230;SDS011;11284;48.086;-1.652;2024-01-15T03:14:53;35.08;;;21.95;;
22230;SDS011;11284;48.086;-1.652;2024-01-15T03:17:19;35.42;;;22.58;;
22230;SDS011;11284;48.086;-1.652;2024-01-15T03:19:44;32.55;;;20.90;;
22230;SDS011;11284;48.086;-1.652;2024-01-15T03:22:11;31.50;;;20.92;;
22230;SDS011;11284;48.086;-1.652;2024-01-15T03:24:36;34.58;;;21.38;;
22230;SDS011;11284;48.086;-1.652;2024-01-15T03:27:03;32.03;;;20.73;;
22230;SDS011;11284;48.086;-1.652;2024-01-15T03:29:29;30.95;;;20.73;;
22230;SDS011;11284;48.086;-1.652;2024-01-15T03:31:55;32.47;;;20.33;;
22230;SDS011;11284;48.086;-1.652;2024-01-15T03:34:21;29.70;;;19.70;;
22230;SDS011;11284;48.086;-1.652;2024-01-15T03:36:47;31.65;;;20.80;;
22230;SDS011;11284;48.086;-1.652;2024-01-15T03:39:12;32.10;;;20.77;;
22230;SDS011;11284;48.086;-1.652;2024-01-15T03:41:38;30.35;;;19.98;;
22230;SDS011;11284;48.086;-1.652;2024-01-15T03:44:04;30.77;;;19.27;;
22230;SDS011;11284;48.086;-1.652;2024-01-15T03:46:30;30.30;;;19.15;;
22230;SDS011;11284;48.086;-1.652;2024-01-15T03:48:56;26.80;;;17.25;;
22230;SDS011;11284;48.086;-1.652;2024-01-15T03:51:23;26.83;;;18.13;;
22230;SDS011;11284;48.086;-1.652;2024-01-15T03:53:49;29.40;;;19.10;;
22230;SDS011;11284;48.086;-1.652;2024-01-15T03:56:15;30.38;;;19.25;;
22230;SDS011;11284;48.086;-1.652;2024-01-15T03:58:41;26.90;;;17.60;;
22230;SDS011;11284;48.086;-1.652;2024-01-15T04:01:10;29.38;;;18.40;;
22230;SDS011;11284;48.086;-1.652;2024-01-15T04:03:36;28.83;;;17.95;;
22230;SDS011;11284;48.086;-1.652;2024-01-15T04:06:03;28.27;;;18.30;;
22230;SDS011;11284;48.086;-1.652;2024-01-15T04:08:29;30.98;;;18.85;;
22230;SDS011;11284;48.086;-1.652;2024-01-15T04:10:55;29.05;;;18.42;;
22230;SDS011;11284;48.086;-1.652;2024-01-15T04:13:21;28.83;;;18.73;;
22230;SDS011;11284;48.086;-1.652;2024-01-15T04:15:47;32.20;;;20.10;;
22230;SDS011;11284;48.086;-1.652;2024-01-15T04:18:13;27.00;;;16.75;;
22230;SDS011;11284;48.086;-1.652;2024-01-15T04:20:39;29.40;;;18.73;;
22230;SDS011;11284;48.086;-1.652;2024-01-15T04:23:05;28.40;;;18.65;;
22230;SDS011;11284;48.086;-1.652;2024-01-15T04:25:31;32.10;;;19.48;;
22230;SDS011;11284;48.086;-1.652;2024-01-15T04:27:57;33.10;;;20.30;;
22230;SDS011;11284;48.086;-1.652;2024-01-15T04:30:23;29.65;;;18.80;;
22230;SDS011;11284;48.086;-1.652;2024-01-15T04:32:49;32.90;;;20.88;;
22230;SDS011;11284;48.086;-1.652;2024-01-15T04:35:15;33.50;;;19.83;;
22230;SDS011;11284;48.086;-1.652;2024-01-15T04:37:41;32.88;;;20.00;;
22230;SDS011;11284;48.086;-1.652;2024-01-15T04:40:08;30.67;;;19.20;;
22230;SDS011;11284;48.086;-1.652;2024-01-15T04:42:34;30.73;;;19.55;;
22230;SDS011;11284;48.086;-1.652;2024-01-15T04:45:00;34.35;;;21.20;;
22230;SDS011;11284;48.086;-1.652;2024-01-15T04:47:26;34.17;;;20.20;;
22230;SDS011;11284;48.086;-1.652;2024-01-15T04:49:52;33.25;;;19.85;;
22230;SDS011;11284;48.086;-1.652;2024-01-15T04:52:18;30.40;;;18.83;;
22230;SDS011;11284;48.086;-1.652;2024-01-15T04:54:44;26.30;;;17.73;;
22230;SDS011;11284;48.086;-1.652;2024-01-15T04:57:10;26.63;;;17.55;;
22230;SDS011;11284;48.086;-1.652;2024-01-15T04:59:36;27.95;;;18.67;;
22230;SDS011;11284;48.086;-1.652;2024-01-15T05:02:02;27.52;;;18.00;;
22230;SDS011;11284;48.086;-1.652;2024-01-15T05:04:28;31.40;;;17.48;;
22230;SDS011;11284;48.086;-1.652;2024-01-15T05:06:55;26.45;;;17.48;;
22230;SDS011;11284;48.086;-1.652;2024-01-15T05:09:21;27.80;;;17.23;;
22230;SDS011;11284;48.086;-1.652;2024-01-15T05:11:47;27.88;;;17.38;;
22230;SDS011;11284;48.086;-1.652;2024-01-15T05:14:13;26.33;;;17.23;;
22230;SDS011;11284;48.086;-1.652;2024-01-15T05:16:39;28.80;;;17.10;;
22230;SDS011;11284;48.086;-1.652;2024-01-15T05:19:06;26.45;;;16.85;;
22230;SDS011;11284;48.086;-1.652;2024-01-15T05:21:32;25.83;;;16.88;;
22230;SDS011;11284;48.086;-1.652;2024-01-15T05:23:58;27.27;;;17.70;;
22230;SDS011;11284;48.086;-1.652;2024-01-15T05:26:24;26.15;;;16.50;;
22230;SDS011;11284;48.086;-1.652;2024-01-15T05:28:50;26.20;;;16.60;;
22230;SDS011;11284;48.086;-1.652;2024-01-15T05:31:16;27.10;;;16.98;;
22230;SDS011;11284;48.086;-1.652;2024-01-15T05:33:42;26.38;;;17.17;;
22230;SDS011;11284;48.086;-1.652;2024-01-15T05:36:08;25.70;;;17.13;;
22230;SDS011;11284;48.086;-1.652;2024-01-15T05:38:34;24.23;;;15.60;;
22230;SDS011;11284;48.086;-1.652;2024-01-15T05:41:00;23.33;;;15.77;;
22230;SDS011;11284;48.086;-1.652;2024-01-15T05:43:26;23.02;;;15.60;;
22230;SDS011;11284;48.086;-1.652;2024-01-15T05:45:52;26.88;;;16.52;;
22230;SDS011;11284;48.086;-1.652;2024-01-15T05:48:18;25.52;;;15.25;;
22230;SDS011;11284;48.086;-1.652;2024-01-15T05:50:44;23.67;;;15.45;;
22230;SDS011;11284;48.086;-1.652;2024-01-15T05:53:10;21.95;;;14.23;;
22230;SDS011;11284;48.086;-1.652;2024-01-15T05:55:36;22.40;;;14.82;;
22230;SDS011;11284;48.086;-1.652;2024-01-15T05:58:03;21.77;;;13.77;;
22230;SDS011;11284;48.086;-1.652;2024-01-15T06:00:29;23.60;;;14.77;;
22230;SDS011;11284;48.086;-1.652;2024-01-15T06:02:56;21.77;;;14.40;;
22230;SDS011;11284;48.086;-1.652;2024-01-15T06:05:22;21.70;;;13.98;;
22230;SDS011;11284;48.086;-1.652;2024-01-15T06:07:48;21.83;;;14.13;;
22230;SDS011;11284;48.086;-1.652;2024-01-15T06:10:14;20.75;;;14.65;;
22230;SDS011;11284;48.086;-1.652;2024-01-15T06:12:40;22.05;;;14.30;;
22230;SDS011;11284;48.086;-1.652;2024-01-15T06:15:06;22.17;;;14.77;;
22230;SDS011;11284;48.086;-1.652;2024-01-15T06:17:32;23.13;;;14.77;;
22230;SDS011;11284;48.086;-1.652;2024-01-15T06:19:58;22.80;;;15.55;;
22230;SDS011;11284;48.086;-1.652;2024-01-15T06:22:24;22.10;;;14.55;;
22230;SDS011;11284;48.086;-1.652;2024-01-15T06:24:50;23.88;;;15.18;;
22230;SDS011;11284;48.086;-1.652;2024-01-15T06:27:16;25.88;;;15.82;;
22230;SDS011;11284;48.086;-1.652;2024-01-15T06:29:45;24.73;;;15.50;;
22230;SDS011;11284;48.086;-1.652;2024-01-15T06:32:14;24.10;;;15.48;;
22230;SDS011;11284;48.086;-1.652;2024-01-15T06:34:40;26.00;;;16.85;;
22230;SDS011;11284;48.086;-1.652;2024-01-15T06:37:06;27.48;;;17.45;;
22230;SDS011;11284;48.086;-1.652;2024-01-15T06:39:32;23.77;;;16.52;;
22230;SDS011;11284;48.086;-1.652;2024-01-15T06:41:58;25.15;;;17.33;;
22230;SDS011;11284;48.086;-1.652;2024-01-15T06:44:24;27.45;;;17.75;;
22230;SDS011;11284;48.086;-1.652;2024-01-15T06:46:50;27.00;;;17.77;;
22230;SDS011;11284;48.086;-1.652;2024-01-15T06:49:16;28.10;;;18.10;;
22230;SDS011;11284;48.086;-1.652;2024-01-15T06:51:42;25.42;;;17.48;;
22230;SDS011;11284;48.086;-1.652;2024-01-15T06:54:08;26.02;;;17.45;;
22230;SDS011;11284;48.086;-1.652;2024-01-15T06:56:34;28.00;;;17.60;;
22230;SDS011;11284;48.086;-1.652;2024-01-15T06:59:01;26.42;;;17.70;;
22230;SDS011;11284;48.086;-1.652;2024-01-15T07:01:27;27.38;;;17.95;;
22230;SDS011;11284;48.086;-1.652;2024-01-15T07:03:53;28.50;;;17.08;;
22230;SDS011;11284;48.086;-1.652;2024-01-15T07:06:19;27.30;;;17.15;;
22230;SDS011;11284;48.086;-1.652;2024-01-15T07:08:45;25.75;;;17.25;;
22230;SDS011;11284;48.086;-1.652;2024-01-15T07:11:11;24.50;;;15.48;;
22230;SDS011;11284;48.086;-1.652;2024-01-15T07:13:37;25.92;;;17.08;;
22230;SDS011;11284;48.086;-1.652;2024-01-15T07:16:09;28.60;;;17.95;;
22230;SDS011;11284;48.086;-1.652;2024-01-15T07:18:36;26.25;;;16.52;;
22230;SDS011;11284;48.086;-1.652;2024-01-15T07:21:07;26.83;;;17.40;;
22230;SDS011;11284;48.086;-1.652;2024-01-15T07:23:33;27.00;;;17.48;;
22230;SDS011;11284;48.086;-1.652;2024-01-15T07:25:59;27.77;;;17.48;;
22230;SDS011;11284;48.086;-1.652;2024-01-15T07:28:25;25.27;;;16.98;;
22230;SDS011;11284;48.086;-1.652;2024-01-15T07:30:51;28.98;;;17.60;;
22230;SDS011;11284;48.086;-1.652;2024-01-15T07:33:17;27.92;;;17.15;;
22230;SDS011;11284;48.086;-1.652;2024-01-15T07:35:43;27.25;;;17.27;;
22230;SDS011;11284;48.086;-1.652;2024-01-15T07:38:09;27.60;;;17.75;;
22230;SDS011;11284;48.086;-1.652;2024-01-15T07:40:36;25.88;;;17.13;;
22230;SDS011;11284;48.086;-1.652;2024-01-15T07:43:02;26.40;;;16.42;;
22230;SDS011;11284;48.086;-1.652;2024-01-15T07:45:29;23.45;;;15.90;;
22230;SDS011;11284;48.086;-1.652;2024-01-15T07:47:55;25.08;;;16.00;;
22230;SDS011;11284;48.086;-1.652;2024-01-15T07:50:21;24.63;;;15.85;;
22230;SDS011;11284;48.086;-1.652;2024-01-15T07:52:47;25.83;;;16.05;;
22230;SDS011;11284;48.086;-1.652;2024-01-15T07:55:13;24.67;;;16.13;;
22230;SDS011;11284;48.086;-1.652;2024-01-15T07:57:39;25.90;;;16.30;;
22230;SDS011;11284;48.086;-1.652;2024-01-15T08:00:06;24.67;;;16.50;;
22230;SDS011;11284;48.086;-1.652;2024-01-15T08:02:34;26.58;;;16.25;;
22230;SDS011;11284;48.086;-1.652;2024-01-15T08:05:00;25.02;;;16.45;;
22230;SDS011;11284;48.086;-1.652;2024-01-15T08:07:26;25.55;;;16.52;;
22230;SDS011;11284;48.086;-1.652;2024-01-15T08:09:52;25.50;;;16.50;;
22230;SDS011;11284;48.086;-1.652;2024-01-15T08:12:18;26.58;;;17.05;;
22230;SDS011;11284;48.086;-1.652;2024-01-15T08:14:44;23.65;;;15.90;;
22230;SDS011;11284;48.086;-1.652;2024-01-15T08:17:11;24.67;;;16.90;;
22230;SDS011;11284;48.086;-1.652;2024-01-15T08:19:37;27.23;;;17.55;;
22230;SDS011;11284;48.086;-1.652;2024-01-15T08:22:06;24.83;;;16.30;;
22230;SDS011;11284;48.086;-1.652;2024-01-15T08:24:31;25.80;;;16.45;;
22230;SDS011;11284;48.086;-1.652;2024-01-15T08:26:57;27.23;;;16.95;;
22230;SDS011;11284;48.086;-1.652;2024-01-15T08:29:23;25.33;;;16.42;;
22230;SDS011;11284;48.086;-1.652;2024-01-15T08:31:49;26.48;;;16.80;;
22230;SDS011;11284;48.086;-1.652;2024-01-15T08:34:16;23.75;;;15.98;;
22230;SDS011;11284;48.086;-1.652;2024-01-15T08:36:42;26.15;;;16.42;;
22230;SDS011;11284;48.086;-1.652;2024-01-15T08:39:08;25.35;;;16.35;;
22230;SDS011;11284;48.086;-1.652;2024-01-15T08:41:34;26.25;;;16.60;;
22230;SDS011;11284;48.086;-1.652;2024-01-15T08:44:00;27.15;;;17.33;;
22230;SDS011;11284;48.086;-1.652;2024-01-15T08:46:27;28.00;;;17.67;;
22230;SDS011;11284;48.086;-1.652;2024-01-15T08:48:53;27.13;;;17.35;;
22230;SDS011;11284;48.086;-1.652;2024-01-15T08:51:19;26.05;;;16.52;;
22230;SDS011;11284;48.086;-1.652;2024-01-15T08:53:46;27.17;;;16.58;;
22230;SDS011;11284;48.086;-1.652;2024-01-15T08:56:11;26.67;;;16.92;;
22230;SDS011;11284;48.086;-1.652;2024-01-15T08:58:37;27.70;;;16.42;;
22230;SDS011;11284;48.086;-1.652;2024-01-15T09:01:03;26.30;;;16.17;;
22230;SDS011;11284;48.086;-1.652;2024-01-15T09:03:30;25.02;;;16.23;;
22230;SDS011;11284;48.086;-1.652;2024-01-15T09:05:57;28.42;;;17.42;;
22230;SDS011;11284;48.086;-1.652;2024-01-15T09:08:23;25.45;;;15.98;;
22230;SDS011;11284;48.086;-1.652;2024-01-15T09:10:49;25.35;;;15.93;;
22230;SDS011;11284;48.086;-1.652;2024-01-15T09:13:15;27.17;;;17.33;;
22230;SDS011;11284;48.086;-1.652;2024-01-15T09:15:42;25.20;;;16.58;;
22230;SDS011;11284;48.086;-1.652;2024-01-15T09:18:08;28.50;;;16.80;;
22230;SDS011;11284;48.086;-1.652;2024-01-15T09:20:35;26.83;;;16.73;;
22230;SDS011;11284;48.086;-1.652;2024-01-15T09:23:01;25.10;;;16.50;;
22230;SDS011;11284;48.086;-1.652;2024-01-15T09:25:27;25.45;;;16.10;;
22230;SDS011;11284;48.086;-1.652;2024-01-15T09:27:54;27.13;;;16.92;;
22230;SDS011;11284;48.086;-1.652;2024-01-15T09:30:20;26.38;;;16.20;;
22230;SDS011;11284;48.086;-1.652;2024-01-15T09:32:46;27.08;;;17.00;;
22230;SDS011;11284;48.086;-1.652;2024-01-15T09:35:12;26.48;;;16.63;;
22230;SDS011;11284;48.086;-1.652;2024-01-15T09:37:39;27.15;;;16.00;;
22230;SDS011;11284;48.086;-1.652;2024-01-15T09:40:05;27.27;;;16.50;;
22230;SDS011;11284;48.086;-1.652;2024-01-15T09:42:31;29.88;;;17.35;;
22230;SDS011;11284;48.086;-1.652;2024-01-15T09:44:59;30.52;;;17.27;;
22230;SDS011;11284;48.086;-1.652;2024-01-15T09:47:25;30.92;;;18.20;;
22230;SDS011;11284;48.086;-1.652;2024-01-15T09:49:51;29.70;;;17.13;;
22230;SDS011;11284;48.086;-1.652;2024-01-15T09:52:18;29.38;;;15.70;;
22230;SDS011;11284;48.086;-1.652;2024-01-15T09:54:44;24.13;;;15.35;;
22230;SDS011;11284;48.086;-1.652;2024-01-15T09:57:11;25.05;;;15.63;;
22230;SDS011;11284;48.086;-1.652;2024-01-15T09:59:37;26.38;;;14.63;;
22230;SDS011;11284;48.086;-1.652;2024-01-15T10:02:04;22.70;;;14.48;;
22230;SDS011;11284;48.086;-1.652;2024-01-15T10:04:31;26.23;;;13.23;;
22230;SDS011;11284;48.086;-1.652;2024-01-15T10:06:57;22.52;;;13.48;;
22230;SDS011;11284;48.086;-1.652;2024-01-15T10:09:26;20.00;;;13.07;;
22230;SDS011;11284;48.086;-1.652;2024-01-15T10:11:52;21.83;;;13.40;;
22230;SDS011;11284;48.086;-1.652;2024-01-15T10:14:19;22.02;;;12.73;;
22230;SDS011;11284;48.086;-1.652;2024-01-15T10:16:45;18.25;;;11.55;;
22230;SDS011;11284;48.086;-1.652;2024-01-15T10:19:11;20.23;;;10.75;;
22230;SDS011;11284;48.086;-1.652;2024-01-15T10:21:37;17.48;;;10.63;;
22230;SDS011;11284;48.086;-1.652;2024-01-15T10:24:03;16.85;;;9.25;;
22230;SDS011;11284;48.086;-1.652;2024-01-15T10:26:30;14.93;;;8.73;;
22230;SDS011;11284;48.086;-1.652;2024-01-15T10:28:56;16.45;;;8.90;;
22230;SDS011;11284;48.086;-1.652;2024-01-15T10:31:24;14.93;;;8.95;;
22230;SDS011;11284;48.086;-1.652;2024-01-15T10:33:50;14.15;;;8.18;;
22230;SDS011;11284;48.086;-1.652;2024-01-15T10:36:17;14.13;;;8.38;;
22230;SDS011;11284;48.086;-1.652;2024-01-15T10:38:43;13.48;;;7.43;;
22230;SDS011;11284;48.086;-1.652;2024-01-15T10:41:10;12.57;;;7.28;;
22230;SDS011;11284;48.086;-1.652;2024-01-15T10:43:36;12.52;;;6.75;;
22230;SDS011;11284;48.086;-1.652;2024-01-15T10:46:02;13.68;;;6.50;;
22230;SDS011;11284;48.086;-1.652;2024-01-15T10:48:28;12.20;;;5.78;;
22230;SDS011;11284;48.086;-1.652;2024-01-15T10:50:56;10.23;;;5.97;;
22230;SDS011;11284;48.086;-1.652;2024-01-15T10:53:22;17.80;;;9.77;;
22230;SDS011;11284;48.086;-1.652;2024-01-15T10:55:50;12.27;;;6.10;;
22230;SDS011;11284;48.086;-1.652;2024-01-15T10:58:16;11.13;;;6.03;;
22230;SDS011;11284;48.086;-1.652;2024-01-15T11:00:42;10.93;;;5.60;;
22230;SDS011;11284;48.086;-1.652;2024-01-15T11:03:08;9.45;;;5.63;;
22230;SDS011;11284;48.086;-1.652;2024-01-15T11:05:38;12.18;;;6.10;;
22230;SDS011;11284;48.086;-1.652;2024-01-15T11:08:07;12.80;;;6.40;;
22230;SDS011;11284;48.086;-1.652;2024-01-15T11:10:46;12.90;;;7.05;;
22230;SDS011;11284;48.086;-1.652;2024-01-15T11:15:59;15.05;;;8.63;;
22230;SDS011;11284;48.086;-1.652;2024-01-15T11:18:26;14.45;;;8.77;;
22230;SDS011;11284;48.086;-1.652;2024-01-15T11:23:44;12.85;;;7.63;;
22230;SDS011;11284;48.086;-1.652;2024-01-15T11:28:49;15.35;;;8.98;;
22230;SDS011;11284;48.086;-1.652;2024-01-15T11:31:16;14.68;;;7.72;;
22230;SDS011;11284;48.086;-1.652;2024-01-15T11:33:47;13.77;;;7.30;;
22230;SDS011;11284;48.086;-1.652;2024-01-15T11:36:13;13.27;;;7.07;;
22230;SDS011;11284;48.086;-1.652;2024-01-15T11:38:39;15.95;;;8.20;;
22230;SDS011;11284;48.086;-1.652;2024-01-15T11:41:15;13.35;;;7.85;;
22230;SDS011;11284;48.086;-1.652;2024-01-15T11:43:41;10.75;;;6.60;;
22230;SDS011;11284;48.086;-1.652;2024-01-15T11:46:11;11.98;;;6.55;;
22230;SDS011;11284;48.086;-1.652;2024-01-15T11:48:43;10.95;;;6.45;;
22230;SDS011;11284;48.086;-1.652;2024-01-15T11:51:10;10.57;;;5.93;;
22230;SDS011;11284;48.086;-1.652;2024-01-15T11:53:44;11.35;;;5.97;;
22230;SDS011;11284;48.086;-1.652;2024-01-15T11:56:17;11.52;;;6.05;;
22230;SDS011;11284;48.086;-1.652;2024-01-15T11:58:43;10.27;;;6.20;;
22230;SDS011;11284;48.086;-1.652;2024-01-15T12:01:13;11.85;;;6.30;;
22230;SDS011;11284;48.086;-1.652;2024-01-15T12:03:39;10.70;;;5.40;;
22230;SDS011;11284;48.086;-1.652;2024-01-15T12:06:05;10.13;;;4.97;;
22230;SDS011;11284;48.086;-1.652;2024-01-15T12:08:32;10.57;;;5.32;;
22230;SDS011;11284;48.086;-1.652;2024-01-15T12:10:58;12.15;;;5.32;;
22230;SDS011;11284;48.086;-1.652;2024-01-15T12:13:24;12.15;;;5.07;;
22230;SDS011;11284;48.086;-1.652;2024-01-15T12:15:50;8.73;;;4.47;;
22230;SDS011;11284;48.086;-1.652;2024-01-15T12:18:17;8.73;;;4.78;;
22230;SDS011;11284;48.086;-1.652;2024-01-15T12:20:43;8.80;;;3.90;;
22230;SDS011;11284;48.086;-1.652;2024-01-15T12:23:12;11.27;;;4.22;;
22230;SDS011;11284;48.086;-1.652;2024-01-15T12:25:41;19.02;;;11.98;;
22230;SDS011;11284;48.086;-1.652;2024-01-15T12:28:07;10.00;;;4.97;;
22230;SDS011;11284;48.086;-1.652;2024-01-15T12:30:35;9.50;;;4.68;;
22230;SDS011;11284;48.086;-1.652;2024-01-15T12:33:02;9.90;;;4.82;;
22230;SDS011;11284;48.086;-1.652;2024-01-15T12:35:32;8.07;;;3.65;;
22230;SDS011;11284;48.086;-1.652;2024-01-15T12:37:59;7.88;;;4.05;;
22230;SDS011;11284;48.086;-1.652;2024-01-15T12:40:30;8.30;;;4.50;;
22230;SDS011;11284;48.086;-1.652;2024-01-15T12:42:56;8.40;;;4.50;;
22230;SDS011;11284;48.086;-1.652;2024-01-15T12:45:23;9.20;;;4.20;;
22230;SDS011;11284;48.086;-1.652;2024-01-15T12:47:49;9.57;;;4.50;;
22230;SDS011;11284;48.086;-1.652;2024-01-15T12:50:16;8.30;;;4.65;;
22230;SDS011;11284;48.086;-1.652;2024-01-15T12:52:42;10.32;;;3.38;;
22230;SDS011;11284;48.086;-1.652;2024-01-15T12:55:08;5.80;;;2.50;;
22230;SDS011;11284;48.086;-1.652;2024-01-15T12:57:35;5.78;;;2.08;;
22230;SDS011;11284;48.086;-1.652;2024-01-15T13:00:02;7.97;;;2.33;;
22230;SDS011;11284;48.086;-1.652;2024-01-15T13:02:31;4.97;;;2.05;;
22230;SDS011;11284;48.086;-1.652;2024-01-15T13:04:58;6.72;;;2.05;;
22230;SDS011;11284;48.086;-1.652;2024-01-15T13:07:24;26.80;;;19.52;;
22230;SDS011;11284;48.086;-1.652;2024-01-15T13:09:50;96.38;;;68.50;;
22230;SDS011;11284;48.086;-1.652;2024-01-15T13:12:18;8.95;;;4.10;;
22230;SDS011;11284;48.086;-1.652;2024-01-15T13:14:45;6.65;;;2.60;;
22230;SDS011;11284;48.086;-1.652;2024-01-15T13:17:12;7.28;;;2.60;;
22230;SDS011;11284;48.086;-1.652;2024-01-15T13:19:39;4.93;;;2.33;;
22230;SDS011;11284;48.086;-1.652;2024-01-15T13:22:05;6.78;;;2.45;;
22230;SDS011;11284;48.086;-1.652;2024-01-15T13:24:34;6.32;;;2.47;;
22230;SDS011;11284;48.086;-1.652;2024-01-15T13:27:01;6.00;;;2.75;;
22230;SDS011;11284;48.086;-1.652;2024-01-15T13:29:29;7.22;;;3.30;;
22230;SDS011;11284;48.086;-1.652;2024-01-15T13:31:55;6.53;;;3.00;;
22230;SDS011;11284;48.086;-1.652;2024-01-15T13:34:21;8.02;;;2.88;;
22230;SDS011;11284;48.086;-1.652;2024-01-15T13:36:47;5.07;;;2.22;;
22230;SDS011;11284;48.086;-1.652;2024-01-15T13:39:14;6.82;;;2.90;;
22230;SDS011;11284;48.086;-1.652;2024-01-15T13:41:45;6.88;;;2.97;;
22230;SDS011;11284;48.086;-1.652;2024-01-15T13:44:11;5.53;;;2.40;;
22230;SDS011;11284;48.086;-1.652;2024-01-15T13:46:37;6.30;;;2.80;;
22230;SDS011;11284;48.086;-1.652;2024-01-15T13:49:03;6.88;;;2.60;;
22230;SDS011;11284;48.086;-1.652;2024-01-15T13:51:31;6.70;;;2.78;;
22230;SDS011;11284;48.086;-1.652;2024-01-15T13:53:57;7.03;;;2.95;;
22230;SDS011;11284;48.086;-1.652;2024-01-15T13:56:23;9.35;;;3.45;;
22230;SDS011;11284;48.086;-1.652;2024-01-15T13:58:49;6.57;;;3.08;;
22230;SDS011;11284;48.086;-1.652;2024-01-15T14:01:16;7.75;;;2.97;;
22230;SDS011;11284;48.086;-1.652;2024-01-15T14:03:43;6.00;;;3.03;;
22230;SDS011;11284;48.086;-1.652;2024-01-15T14:06:09;7.43;;;3.00;;
22230;SDS011;11284;48.086;-1.652;2024-01-15T14:08:35;7.25;;;3.17;;
22230;SDS011;11284;48.086;-1.652;2024-01-15T14:11:02;8.10;;;3.35;;
22230;SDS011;11284;48.086;-1.652;2024-01-15T14:13:28;6.65;;;3.60;;
22230;SDS011;11284;48.086;-1.652;2024-01-15T14:15:54;7.70;;;3.80;;
22230;SDS011;11284;48.086;-1.652;2024-01-15T14:18:20;6.93;;;3.75;;